createdAt,value
2022-09-07T00:03:57.434Z,100008.25
2022-09-07T00:08:59.030Z,100011.56
2022-09-07T00:14:00.684Z,100004.91
2022-09-07T00:19:03.837Z,100012.09
2022-09-07T00:24:05.595Z,100016.00
2022-09-07T00:29:07.997Z,100007.41
2022-09-07T00:34:09.591Z,100002.16
2022-09-07T00:39:11.147Z,99990.53
2022-09-07T00:44:43.752Z,99981.69
2022-09-07T00:49:50.485Z,99977.25
2022-09-07T00:54:56.482Z,99988.31
2022-09-07T00:59:59.194Z,99993.84
2022-09-07T01:05:09.504Z,100009.34
2022-09-07T01:10:11.593Z,100023.16
2022-09-07T01:15:13.158Z,100037.56
2022-09-07T01:20:55.880Z,100052.50
2022-09-07T01:26:24.623Z,100078.50
2022-09-07T01:31:37.076Z,100106.75
2022-09-07T01:37:04.223Z,100101.47
2022-09-07T01:42:10.567Z,100120.59
2022-09-07T01:47:24.343Z,100112.81
2022-09-07T01:52:44.335Z,100119.50
2022-09-07T01:57:48.451Z,100113.41
2022-09-07T02:03:14.695Z,100099.53
2022-09-07T02:08:25.565Z,100109.78
2022-09-07T02:13:47.795Z,100093.97
2022-09-07T02:18:54.995Z,100091.75
2022-09-07T02:24:06.484Z,100093.38
2022-09-07T02:29:08.327Z,100085.59
2022-09-07T02:34:10.361Z,100090.28
2022-09-07T02:39:11.911Z,100089.47
2022-09-07T02:44:20.281Z,100078.69
2022-09-07T02:49:36.758Z,100077.84
2022-09-07T02:55:09.473Z,100087.56
2022-09-07T03:00:15.394Z,100100.06
2022-09-07T03:05:24.610Z,100092.63
2022-09-07T03:10:27.171Z,100072.41
2022-09-07T03:15:28.972Z,100077.38
2022-09-07T03:20:30.671Z,100071.84
2022-09-07T03:25:32.395Z,100068.75
2022-09-07T03:30:34.057Z,100068.75
2022-09-07T03:35:35.622Z,100062.16
2022-09-07T03:40:37.456Z,100058.59
2022-09-07T03:45:39.064Z,100057.75
2022-09-07T03:50:40.688Z,100059.16
2022-09-07T03:55:42.266Z,100057.78
2022-09-07T04:00:43.808Z,100051.97
2022-09-07T04:05:45.459Z,100059.19
2022-09-07T04:10:47.031Z,100049.50
2022-09-07T04:15:52.128Z,100061.41
2022-09-07T04:20:58.627Z,100066.38
2022-09-07T04:26:00.259Z,100081.28
2022-09-07T04:31:02.414Z,100093.94
2022-09-07T04:36:04.851Z,100085.94
2022-09-07T04:41:10.074Z,100090.59
2022-09-07T04:46:26.533Z,100083.38
2022-09-07T04:51:30.276Z,100091.38
2022-09-07T04:56:32.338Z,100090.56
2022-09-07T05:01:34.423Z,100088.88
2022-09-07T05:06:36.404Z,100102.69
2022-09-07T05:11:38.040Z,100100.19
2022-09-07T05:16:39.651Z,100101.59
2022-09-07T05:21:41.524Z,100097.47
2022-09-07T05:26:43.245Z,100106.63
2022-09-07T05:31:45.209Z,100117.19
2022-09-07T05:36:46.743Z,100124.97
2022-09-07T05:41:48.362Z,100129.44
2022-09-07T05:46:51.684Z,100134.72
2022-09-07T05:51:53.362Z,100138.00
2022-09-07T05:56:54.975Z,100157.09
2022-09-07T06:01:56.782Z,100164.19
2022-09-07T06:07:20.660Z,100157.69
2022-09-07T06:12:20.202Z,100151.09
2022-09-07T06:17:21.933Z,100166.34
2022-09-07T06:22:26.675Z,100162.16
2022-09-07T06:27:30.689Z,100170.09
2022-09-07T06:32:43.229Z,100179.25
2022-09-07T06:37:45.255Z,100194.78
2022-09-07T06:42:46.827Z,100192.63
2022-09-07T06:47:53.839Z,100201.31
2022-09-07T06:58:17.183Z,100204.78
2022-09-07T07:03:19.481Z,100210.44
2022-09-07T07:08:23.106Z,100223.28
2022-09-07T07:13:24.887Z,100221.38
2022-09-07T07:18:26.457Z,100226.53
2022-09-07T07:23:28.082Z,100224.66
2022-09-07T07:33:53.035Z,100221.88
2022-09-07T07:44:00.534Z,100243.38
2022-09-07T07:49:02.332Z,100248.88
2022-09-07T07:54:04.001Z,100251.94
2022-09-07T07:59:05.670Z,100244.44
2022-09-07T08:04:07.184Z,100254.25
2022-09-07T08:09:08.711Z,100260.25
2022-09-07T08:14:10.406Z,100265.91
2022-09-07T08:19:12.208Z,100268.72
2022-09-07T08:24:13.764Z,100285.06
2022-09-07T08:29:15.520Z,100281.41
2022-09-07T08:34:17.236Z,100276.53
2022-09-07T08:39:18.837Z,100284.13
2022-09-07T08:44:39.139Z,100282.16
2022-09-07T08:49:43.838Z,100286.94
2022-09-07T08:54:58.298Z,100284.47
2022-09-07T09:00:11.623Z,100281.81
2022-09-07T09:05:35.840Z,100284.00
2022-09-07T09:10:56.540Z,100291.91
2022-09-07T09:16:18.257Z,100276.50
2022-09-07T09:21:20.559Z,100273.97
2022-09-07T09:26:27.832Z,100267.00
2022-09-07T09:31:35.991Z,100257.41
2022-09-07T09:36:49.755Z,100259.63
2022-09-07T09:41:51.731Z,100251.16
2022-09-07T09:52:44.956Z,100250.22
2022-09-07T10:08:54.688Z,100232.38
2022-09-07T10:13:57.898Z,100239.53
2022-09-07T10:19:01.217Z,100227.22
2022-09-07T10:24:06.142Z,100247.78
2022-09-07T10:29:14.868Z,100226.13
2022-09-07T10:34:49.036Z,100226.75
2022-09-07T10:47:01.231Z,100215.66
2022-09-07T10:52:08.777Z,100210.72
2022-09-07T10:57:49.354Z,100219.44
2022-09-07T11:03:27.355Z,100221.19
2022-09-07T11:09:17.586Z,100193.44
2022-09-07T11:14:22.311Z,100175.69
2022-09-07T11:19:49.825Z,100186.91
2022-09-07T11:30:35.844Z,100175.03
2022-09-07T11:35:55.770Z,100172.81
2022-09-07T11:41:06.395Z,100172.00
2022-09-07T11:46:18.789Z,100184.44
2022-09-07T11:52:05.081Z,100177.06
2022-09-07T11:57:15.822Z,100165.84
2022-09-07T12:02:57.616Z,100170.47
2022-09-07T12:08:22.092Z,100160.56
2022-09-07T12:13:47.992Z,100165.75
2022-09-07T12:19:10.788Z,100158.53
2022-09-07T12:24:34.020Z,100147.72
2022-09-07T12:29:35.986Z,100148.56
2022-09-07T12:34:52.437Z,100107.19
2022-09-07T12:40:32.140Z,100123.69
2022-09-07T12:45:33.617Z,100108.91
2022-09-07T12:50:42.242Z,100078.78
2022-09-07T12:56:16.723Z,100115.97
2022-09-07T13:01:46.247Z,100094.22
2022-09-07T13:07:17.312Z,100087.03
2022-09-07T13:17:57.080Z,100051.94
2022-09-07T13:23:25.454Z,100085.78
2022-09-07T13:28:42.424Z,100087.09
2022-09-07T13:33:50.369Z,100101.25
2022-09-07T13:38:53.934Z,100084.63
2022-09-07T13:44:01.186Z,100087.03
2022-09-07T13:49:23.530Z,100102.91
2022-09-07T13:54:44.179Z,100105.97
2022-09-07T13:59:50.283Z,100084.38
2022-09-07T14:04:54.901Z,100084.47
2022-09-07T14:10:21.018Z,100088.59
2022-09-07T14:15:25.532Z,100075.63
2022-09-07T14:20:28.180Z,100059.63
2022-09-07T14:25:30.120Z,100068.59
2022-09-07T14:30:33.472Z,100062.00
2022-09-07T14:35:38.455Z,100065.78
2022-09-07T14:40:40.325Z,100071.53
2022-09-07T14:45:41.947Z,100028.06
2022-09-07T14:51:05.515Z,100030.31
2022-09-07T14:56:10.891Z,100011.06
2022-09-07T15:12:36.434Z,100019.78
2022-09-07T15:17:43.638Z,99994.19
2022-09-07T15:22:45.948Z,100000.06
2022-09-07T15:27:47.713Z,100006.84
2022-09-07T15:32:49.502Z,100006.56
2022-09-07T15:38:59.555Z,100008.03
2022-09-07T15:43:20.418Z,99998.28
2022-09-07T15:48:27.062Z,99986.81
2022-09-07T15:58:55.923Z,99993.47
2022-09-07T16:03:58.761Z,99976.16
2022-09-07T16:09:00.438Z,99970.06
2022-09-07T16:14:03.498Z,99968.47
2022-09-07T16:19:07.325Z,99933.25
2022-09-07T16:24:09.208Z,99919.53
2022-09-07T16:29:10.921Z,99919.19
2022-09-07T16:34:14.102Z,99931.91
2022-09-07T16:39:16.154Z,99939.88
2022-09-07T16:44:17.857Z,99946.97
2022-09-07T16:49:19.685Z,99945.16
2022-09-07T16:54:21.392Z,99952.53
2022-09-07T16:59:26.662Z,99938.72
2022-09-07T17:04:29.077Z,99941.94
2022-09-07T17:09:30.694Z,99929.16
2022-09-07T17:14:32.670Z,99933.44
2022-09-07T17:19:34.544Z,99940.44
2022-09-07T17:24:36.189Z,99955.00
2022-09-07T17:29:37.843Z,99956.41
2022-09-07T17:34:39.383Z,99944.13
2022-09-07T17:39:41.073Z,99950.59
2022-09-07T17:44:42.708Z,99970.91
2022-09-07T17:49:44.352Z,99984.78
2022-09-07T17:54:45.854Z,99988.88
2022-09-07T18:05:11.468Z,99942.03
2022-09-07T18:10:13.107Z,99907.03
2022-09-07T18:15:14.802Z,99898.44
2022-09-07T18:20:16.548Z,99900.00
2022-09-07T18:25:18.104Z,99929.19
2022-09-07T18:30:47.475Z,99918.59
2022-09-07T18:35:49.054Z,99929.28
2022-09-07T18:41:00.140Z,99928.28
2022-09-07T18:46:08.532Z,99944.91
2022-09-07T18:51:10.783Z,99929.91
2022-09-07T18:56:15.038Z,99913.81
2022-09-07T19:01:18.613Z,99903.66
2022-09-07T19:06:20.351Z,99911.88
2022-09-07T19:11:24.743Z,99928.59
2022-09-07T19:16:27.902Z,99931.69
2022-09-07T19:21:33.011Z,99925.63
2022-09-07T19:26:37.229Z,99910.69
2022-09-07T19:31:38.760Z,99897.47
2022-09-07T19:36:40.762Z,99883.16
2022-09-07T19:41:45.034Z,99844.50
2022-09-07T19:46:46.589Z,99833.41
2022-09-07T19:51:51.822Z,99819.00
2022-09-07T19:56:53.380Z,99811.41
2022-09-07T20:01:55.023Z,99815.88
2022-09-07T20:06:56.574Z,99829.19
2022-09-07T20:11:58.261Z,99821.41
2022-09-07T20:16:59.896Z,99815.16
2022-09-07T20:22:01.580Z,99799.94
2022-09-07T20:27:03.178Z,99799.34
2022-09-07T20:32:04.778Z,99778.47
2022-09-07T20:37:06.382Z,99772.91
2022-09-07T20:42:07.956Z,99772.94
2022-09-07T20:47:11.706Z,99775.19
2022-09-07T20:52:13.212Z,99770.44
2022-09-07T20:57:14.703Z,99766.50
2022-09-07T21:02:16.266Z,99777.44
2022-09-07T21:07:17.847Z,99781.00
2022-09-07T21:12:19.590Z,99786.50
2022-09-07T21:17:21.187Z,99788.13
2022-09-07T21:22:22.749Z,99797.47
2022-09-07T21:27:24.290Z,99809.78
2022-09-07T21:32:25.860Z,99820.81
2022-09-07T21:37:27.366Z,99821.34
2022-09-07T21:42:29.008Z,99820.44
2022-09-07T21:47:30.519Z,99823.47
2022-09-07T21:52:32.034Z,99820.13
2022-09-07T21:57:33.555Z,99823.94
2022-09-07T22:02:35.164Z,99820.56
2022-09-07T22:07:36.670Z,99824.53
2022-09-07T22:12:38.209Z,99812.91
2022-09-07T22:17:42.310Z,99809.31
2022-09-07T22:22:47.281Z,99826.78
2022-09-07T22:27:48.778Z,99829.00
2022-09-07T22:32:51.605Z,99848.53
2022-09-07T22:37:53.111Z,99865.34
2022-09-07T22:42:54.612Z,99873.34
2022-09-07T22:47:58.226Z,99879.28
2022-09-07T22:52:59.748Z,99871.50
2022-09-07T22:58:01.243Z,99871.19
2022-09-07T23:03:03.790Z,99853.50
2022-09-07T23:08:05.367Z,99856.88
2022-09-07T23:13:08.931Z,99838.91
2022-09-07T23:18:19.053Z,99828.66
2022-09-07T23:23:20.599Z,99812.09
2022-09-07T23:28:22.098Z,99803.28
2022-09-07T23:33:24.194Z,99791.13
2022-09-07T23:38:26.278Z,99769.00
2022-09-07T23:43:30.085Z,99758.84
2022-09-07T23:48:31.715Z,99756.97
2022-09-07T23:53:33.352Z,99735.41
2022-09-07T23:58:35.074Z,99722.13
